createdAt,value
2022-08-10T00:01:52.284Z,52.39
2022-08-10T00:04:24.794Z,52.52
2022-08-10T00:06:55.531Z,52.55
2022-08-10T00:09:25.497Z,52.57
2022-08-10T00:11:53.425Z,52.59
2022-08-10T00:14:21.486Z,52.69
2022-08-10T00:16:49.688Z,52.83
2022-08-10T00:19:18.335Z,52.86
2022-08-10T00:21:47.370Z,52.95
2022-08-10T00:24:16.334Z,53.03
2022-08-10T00:27:52.007Z,53.02
2022-08-10T00:29:32.490Z,53.19
2022-08-10T00:32:00.458Z,53.21
2022-08-10T00:34:30.076Z,53.24
2022-08-10T00:36:59.171Z,53.37
2022-08-10T00:39:28.767Z,53.38
2022-08-10T00:42:06.866Z,53.44
2022-08-10T00:44:40.449Z,53.59
2022-08-10T00:47:16.278Z,53.64
2022-08-10T00:49:57.725Z,53.68
2022-08-10T00:52:27.042Z,53.72
2022-08-10T00:54:55.755Z,53.74
2022-08-10T00:57:25.583Z,53.90
2022-08-10T00:59:58.410Z,54.00
2022-08-10T01:02:32.511Z,54.11
2022-08-10T01:05:05.222Z,54.10
2022-08-10T01:08:01.532Z,54.11
2022-08-10T01:10:38.935Z,54.16
2022-08-10T01:13:30.919Z,54.28
2022-08-10T01:16:05.481Z,54.41
2022-08-10T01:18:42.657Z,54.44
2022-08-10T01:21:56.580Z,54.51
2022-08-10T01:24:43.643Z,54.55
2022-08-10T01:27:44.495Z,54.61
2022-08-10T01:30:14.413Z,54.68
2022-08-10T01:33:00.886Z,54.65
2022-08-10T01:35:53.184Z,54.80
2022-08-10T01:38:29.044Z,54.88
2022-08-10T01:41:11.150Z,54.92
2022-08-10T01:43:54.165Z,54.93
2022-08-10T01:46:24.488Z,55.05
2022-08-10T01:48:56.007Z,55.00
2022-08-10T01:51:31.197Z,55.13
2022-08-10T01:54:02.564Z,55.17
2022-08-10T01:56:33.605Z,55.27
2022-08-10T01:59:09.557Z,55.34
2022-08-10T02:01:42.087Z,55.29
2022-08-10T02:04:12.289Z,55.49
2022-08-10T02:06:51.265Z,55.56
2022-08-10T02:09:22.187Z,55.55
2022-08-10T02:11:55.732Z,55.64
2022-08-10T02:14:42.025Z,55.73
2022-08-10T02:17:57.599Z,55.82
2022-08-10T02:20:07.769Z,55.83
2022-08-10T02:22:39.318Z,55.82
2022-08-10T02:25:09.102Z,55.96
2022-08-10T02:27:40.909Z,55.99
2022-08-10T02:30:10.403Z,55.97
2022-08-10T02:32:39.135Z,56.12
2022-08-10T02:35:14.776Z,56.14
2022-08-10T02:37:53.290Z,56.18
2022-08-10T02:45:02.054Z,56.14
2022-08-10T02:45:21.241Z,56.33
2022-08-10T02:46:20.962Z,56.40
2022-08-10T02:48:59.758Z,56.41
2022-08-10T02:52:06.408Z,56.54
2022-08-10T02:54:32.948Z,56.54
2022-08-10T02:57:14.278Z,56.72
2022-08-10T02:59:45.966Z,56.63
2022-08-10T03:02:20.115Z,56.73
2022-08-10T03:04:55.542Z,56.69
2022-08-10T03:07:43.698Z,56.85
2022-08-10T03:10:21.583Z,56.83
2022-08-10T03:12:52.787Z,56.97
2022-08-10T03:15:22.288Z,57.07
2022-08-10T03:17:57.637Z,57.03
2022-08-10T03:20:37.896Z,57.00
2022-08-10T03:23:13.525Z,57.13
2022-08-10T03:25:53.396Z,57.31
2022-08-10T03:28:24.771Z,57.38
2022-08-10T03:30:53.614Z,57.37
2022-08-10T03:33:22.820Z,57.30
2022-08-10T03:36:43.118Z,57.37
2022-08-10T03:38:44.535Z,57.55
2022-08-10T03:41:16.322Z,57.54
2022-08-10T03:43:49.775Z,57.59
2022-08-10T03:46:21.340Z,57.60
2022-08-10T03:48:53.344Z,57.68
2022-08-10T03:51:22.542Z,57.60
2022-08-10T03:54:04.308Z,57.68
2022-08-10T03:56:37.172Z,57.87
2022-08-10T03:59:10.978Z,57.85
2022-08-10T04:02:46.317Z,57.85
2022-08-10T04:04:27.622Z,58.02
2022-08-10T04:07:01.518Z,57.95
2022-08-10T04:09:56.016Z,58.18
2022-08-10T04:12:20.597Z,58.16
2022-08-10T04:14:51.181Z,58.25
2022-08-10T04:17:59.366Z,58.21
2022-08-10T04:20:38.346Z,58.40
2022-08-10T04:23:18.750Z,58.40
2022-08-10T04:25:46.692Z,58.42
2022-08-10T04:28:14.752Z,58.46
2022-08-10T04:30:44.698Z,58.51
2022-08-10T04:33:15.243Z,58.64
2022-08-10T04:35:45.331Z,58.47
2022-08-10T04:38:14.725Z,58.66
2022-08-10T04:40:43.719Z,58.75
2022-08-10T04:43:13.067Z,58.65
2022-08-10T04:45:50.566Z,58.82
2022-08-10T04:48:42.474Z,58.91
2022-08-10T04:51:18.002Z,59.02
2022-08-10T04:54:04.905Z,58.96
2022-08-10T04:56:37.479Z,59.09
2022-08-10T04:59:06.927Z,59.04
2022-08-10T05:02:13.543Z,59.14
2022-08-10T05:04:35.529Z,59.06
2022-08-10T05:07:09.258Z,59.25
2022-08-10T05:10:04.247Z,59.24
2022-08-10T05:12:29.534Z,59.12
2022-08-10T05:14:57.450Z,59.23
2022-08-10T05:17:25.179Z,59.37
2022-08-10T05:20:02.065Z,59.45
2022-08-10T05:22:43.738Z,59.54
2022-08-10T05:25:14.672Z,59.52
2022-08-10T05:27:43.515Z,59.51
2022-08-10T05:30:15.733Z,59.57
2022-08-10T05:32:56.434Z,59.65
2022-08-10T05:35:28.513Z,59.74
2022-08-10T05:38:12.291Z,59.89
2022-08-10T05:40:46.651Z,59.85
2022-08-10T05:43:16.960Z,59.86
2022-08-10T05:46:17.246Z,59.86
2022-08-10T05:48:54.953Z,59.90
2022-08-10T05:51:23.419Z,59.87
2022-08-10T05:54:01.207Z,59.90
2022-08-10T05:56:54.834Z,59.95
2022-08-10T06:00:29.531Z,59.87
2022-08-10T06:02:41.796Z,59.77
2022-08-10T06:05:12.140Z,60.01
2022-08-10T06:08:01.314Z,59.92
2022-08-10T06:10:32.448Z,59.90
2022-08-10T06:13:26.751Z,59.93
2022-08-10T06:16:02.669Z,59.94
2022-08-10T06:18:31.177Z,59.85
2022-08-10T06:21:00.835Z,59.87
2022-08-10T06:23:30.509Z,60.04
2022-08-10T06:26:11.254Z,59.88
2022-08-10T06:29:02.800Z,60.01
2022-08-10T06:31:47.905Z,59.99
2022-08-10T06:34:27.036Z,60.09
2022-08-10T06:36:57.933Z,59.96
2022-08-10T06:39:34.932Z,60.15
2022-08-10T06:42:29.539Z,60.15
2022-08-10T06:45:01.899Z,60.23
2022-08-10T06:47:54.153Z,59.96
2022-08-10T06:50:45.391Z,60.10
2022-08-10T06:53:18.306Z,60.08
2022-08-10T06:55:56.504Z,60.15
2022-08-10T06:58:29.105Z,60.05
2022-08-10T07:00:57.002Z,60.27
2022-08-10T07:03:34.193Z,60.09
2022-08-10T07:06:04.793Z,60.23
2022-08-10T07:08:34.444Z,60.18
2022-08-10T07:11:03.667Z,60.05
2022-08-10T07:14:14.259Z,60.11
2022-08-10T07:16:22.079Z,58.57
2022-08-10T07:18:49.951Z,57.96
2022-08-10T07:21:18.109Z,57.85
2022-08-10T07:23:57.740Z,57.55
2022-08-10T07:26:30.963Z,57.04
2022-08-10T07:29:00.619Z,56.56
2022-08-10T07:31:54.895Z,56.60
2022-08-10T07:34:21.676Z,55.87
2022-08-10T07:37:03.204Z,55.86
2022-08-10T07:40:02.103Z,55.63
2022-08-10T07:42:25.550Z,54.65
2022-08-10T07:44:53.431Z,54.24
2022-08-10T07:47:46.187Z,53.91
2022-08-10T07:50:19.162Z,52.84
2022-08-10T07:52:48.931Z,52.60
2022-08-10T07:55:19.638Z,51.83
2022-08-10T07:58:08.917Z,50.90
2022-08-10T08:00:37.928Z,50.33
2022-08-10T08:03:07.676Z,49.90
2022-08-10T08:05:59.054Z,48.96
2022-08-10T08:08:24.936Z,48.10
2022-08-10T08:10:58.135Z,47.63
2022-08-10T08:13:27.876Z,46.90
2022-08-10T08:16:20.612Z,46.15
2022-08-10T08:19:03.634Z,45.01
2022-08-10T08:24:08.541Z,44.64
2022-08-10T08:24:32.374Z,44.35
2022-08-10T08:27:03.503Z,42.49
2022-08-10T08:29:38.317Z,42.32
2022-08-10T08:32:06.955Z,42.28
2022-08-10T08:34:38.725Z,41.26
2022-08-10T08:37:09.954Z,40.81
2022-08-10T08:39:38.624Z,40.35
2022-08-10T08:42:18.308Z,39.51
2022-08-10T08:45:23.326Z,39.18
2022-08-10T08:48:10.120Z,38.69
2022-08-10T08:51:01.875Z,37.91
2022-08-10T08:54:07.737Z,37.42
2022-08-10T08:56:50.196Z,36.59
2022-08-10T08:59:31.267Z,36.23
2022-08-10T09:02:05.569Z,35.87
2022-08-10T09:04:55.833Z,35.97
2022-08-10T09:08:01.746Z,35.18
2022-08-10T09:11:19.714Z,35.04
2022-08-10T09:14:17.218Z,34.39
2022-08-10T09:17:03.418Z,34.14
2022-08-10T09:19:49.625Z,33.56
2022-08-10T09:22:57.460Z,33.68
2022-08-10T09:25:34.420Z,33.12
2022-08-10T09:28:08.093Z,33.07
2022-08-10T09:31:10.196Z,32.68
2022-08-10T09:36:21.166Z,32.85
2022-08-10T09:37:08.668Z,32.36
2022-08-10T09:40:56.111Z,32.36
2022-08-10T09:43:26.199Z,32.00
2022-08-10T09:46:33.452Z,31.32
2022-08-10T09:49:10.717Z,31.70
2022-08-10T09:52:02.040Z,31.27
2022-08-10T09:54:54.300Z,31.35
2022-08-10T09:57:46.521Z,31.30
2022-08-10T10:00:30.837Z,31.26
2022-08-10T10:03:18.345Z,31.48
2022-08-10T10:06:03.472Z,31.23
2022-08-10T10:09:10.054Z,31.11
2022-08-10T10:12:09.723Z,30.74
2022-08-10T10:15:24.681Z,31.17
2022-08-10T10:18:00.417Z,30.81
2022-08-10T10:20:49.851Z,30.96
2022-08-10T10:23:51.395Z,30.97
2022-08-10T10:26:57.136Z,31.07
2022-08-10T10:29:58.249Z,31.30
2022-08-10T10:32:57.305Z,31.26
2022-08-10T10:35:50.354Z,31.44
2022-08-10T10:38:21.487Z,31.51
2022-08-10T10:40:59.459Z,31.24
2022-08-10T10:43:57.926Z,31.61
2022-08-10T10:46:52.107Z,31.50
2022-08-10T10:49:31.253Z,31.75
2022-08-10T10:52:20.507Z,31.97
2022-08-10T10:55:15.312Z,31.95
2022-08-10T10:58:07.679Z,31.85
2022-08-10T11:00:58.153Z,32.22
2022-08-10T11:03:44.329Z,32.36
2022-08-10T11:06:40.839Z,32.54
2022-08-10T11:10:05.187Z,32.41
2022-08-10T11:12:25.422Z,32.43
2022-08-10T11:15:42.875Z,32.61
2022-08-10T11:18:35.825Z,32.52
2022-08-10T11:21:31.597Z,32.90
2022-08-10T11:24:42.639Z,33.08
2022-08-10T11:27:17.424Z,33.26
2022-08-10T11:30:11.087Z,33.24
2022-08-10T11:33:12.621Z,33.21
2022-08-10T11:35:48.587Z,33.44
2022-08-10T11:39:11.136Z,33.51
2022-08-10T11:42:07.691Z,33.55
2022-08-10T11:44:59.934Z,33.47
2022-08-10T11:47:52.652Z,33.64
2022-08-10T11:50:23.062Z,33.29
2022-08-10T11:53:11.752Z,34.01
2022-08-10T11:55:41.973Z,34.12
2022-08-10T11:58:31.715Z,34.07
2022-08-10T12:01:04.093Z,34.18
2022-08-10T12:03:35.017Z,34.17
2022-08-10T12:06:05.819Z,34.49
2022-08-10T12:10:03.550Z,34.45
2022-08-10T12:11:26.523Z,34.16
2022-08-10T12:14:22.627Z,34.32
2022-08-10T12:16:57.505Z,34.38
2022-08-10T12:19:58.996Z,34.52
2022-08-10T12:22:34.098Z,34.83
2022-08-10T12:25:10.735Z,34.67
2022-08-10T12:27:52.552Z,34.59
2022-08-10T12:30:29.488Z,34.63
2022-08-10T12:33:04.555Z,34.53
2022-08-10T12:36:16.935Z,34.67
2022-08-10T12:39:22.206Z,35.05
2022-08-10T12:42:03.259Z,34.67
2022-08-10T12:44:50.140Z,34.88
2022-08-10T12:47:31.708Z,34.85
2022-08-10T12:50:32.876Z,34.66
2022-08-10T12:53:13.742Z,34.96
2022-08-10T12:55:42.666Z,35.10
2022-08-10T12:58:57.396Z,34.93
2022-08-10T13:01:16.081Z,35.08
2022-08-10T13:04:22.814Z,35.18
2022-08-10T13:06:42.634Z,35.10
2022-08-10T13:09:13.550Z,35.07
2022-08-10T13:12:38.094Z,35.04
2022-08-10T13:14:54.073Z,35.14
2022-08-10T13:17:32.539Z,35.31
2022-08-10T13:20:34.309Z,35.33
2022-08-10T13:23:10.225Z,35.25
2022-08-10T13:25:45.468Z,35.02
2022-08-10T13:28:35.790Z,35.22
2022-08-10T13:31:11.360Z,35.14
2022-08-10T13:34:43.131Z,35.17
2022-08-10T13:37:02.485Z,35.20
2022-08-10T13:39:59.424Z,34.99
2022-08-10T13:42:32.053Z,35.33
2022-08-10T13:45:09.204Z,35.10
2022-08-10T13:47:48.721Z,35.19
2022-08-10T13:50:33.129Z,35.20
2022-08-10T13:53:11.485Z,34.88
2022-08-10T13:55:57.350Z,34.96
2022-08-10T13:58:32.039Z,35.12
2022-08-10T14:01:03.013Z,34.79
2022-08-10T14:03:37.532Z,35.05
2022-08-10T14:06:07.534Z,34.97
2022-08-10T14:08:37.979Z,35.04
2022-08-10T14:11:12.363Z,35.01
2022-08-10T14:14:04.268Z,35.27
2022-08-10T14:16:34.743Z,35.36
2022-08-10T14:19:10.130Z,35.09
2022-08-10T14:21:40.459Z,35.12
2022-08-10T14:24:24.637Z,34.97
2022-08-10T14:27:02.506Z,35.24
2022-08-10T14:29:31.629Z,35.29
2022-08-10T14:32:02.541Z,35.14
2022-08-10T14:36:16.226Z,35.04
2022-08-10T14:37:30.000Z,34.98
2022-08-10T14:40:11.759Z,35.07
2022-08-10T14:43:11.705Z,35.17
2022-08-10T14:45:45.145Z,35.11
2022-08-10T14:48:23.222Z,35.02
2022-08-10T14:51:02.604Z,35.23
2022-08-10T14:53:35.356Z,35.17
2022-08-10T14:56:08.462Z,34.97
2022-08-10T14:58:59.110Z,35.22
2022-08-10T15:02:00.401Z,35.14
2022-08-10T15:04:23.886Z,35.11
2022-08-10T15:06:57.621Z,35.29
2022-08-10T15:09:59.682Z,35.33
2022-08-10T15:12:27.065Z,35.23
2022-08-10T15:15:00.830Z,35.27
2022-08-10T15:17:34.798Z,35.31
2022-08-10T15:20:30.042Z,35.50
2022-08-10T15:23:05.995Z,35.46
2022-08-10T15:25:39.815Z,35.40
2022-08-10T15:29:08.464Z,35.52
2022-08-10T15:31:18.495Z,35.58
2022-08-10T15:34:10.931Z,35.56
2022-08-10T15:37:39.702Z,35.74
2022-08-10T15:40:25.913Z,35.64
2022-08-10T15:43:20.909Z,35.65
2022-08-10T15:46:04.779Z,35.64
2022-08-10T15:48:48.284Z,35.82
2022-08-10T15:51:23.026Z,35.81
2022-08-10T15:54:03.196Z,35.80
2022-08-10T15:56:39.893Z,35.84
2022-08-10T15:59:17.227Z,35.80
2022-08-10T16:02:14.287Z,35.93
2022-08-10T16:04:57.554Z,35.99
2022-08-10T16:07:46.007Z,36.03
2022-08-10T16:10:28.119Z,36.06
2022-08-10T16:14:00.814Z,36.18
2022-08-10T16:15:56.238Z,36.14
2022-08-10T16:18:30.173Z,36.05
2022-08-10T16:21:00.195Z,36.00
2022-08-10T16:24:13.089Z,36.01
2022-08-10T16:26:46.568Z,35.94
2022-08-10T16:29:20.013Z,35.91
2022-08-10T16:31:59.717Z,36.00
2022-08-10T16:34:30.838Z,36.04
2022-08-10T16:37:04.133Z,36.02
2022-08-10T16:39:57.650Z,36.21
2022-08-10T16:42:31.218Z,35.90
2022-08-10T16:45:15.167Z,35.89
2022-08-10T16:47:51.844Z,35.96
2022-08-10T16:50:27.622Z,35.87
2022-08-10T16:53:00.460Z,35.83
2022-08-10T16:55:48.264Z,36.00
2022-08-10T16:58:25.323Z,35.98
2022-08-10T17:01:00.927Z,35.85
2022-08-10T17:04:05.555Z,36.00
2022-08-10T17:06:42.522Z,36.10
2022-08-10T17:09:19.435Z,36.16
2022-08-10T17:11:51.714Z,36.03
2022-08-10T17:14:24.260Z,36.19
2022-08-10T17:17:00.426Z,36.10
2022-08-10T17:19:35.024Z,36.17
2022-08-10T17:22:10.892Z,36.17
2022-08-10T17:25:06.114Z,36.18
2022-08-10T17:28:04.125Z,36.37
2022-08-10T17:30:35.453Z,36.25
2022-08-10T17:33:19.757Z,36.25
2022-08-10T17:35:51.668Z,36.22
2022-08-10T17:38:25.068Z,36.13
2022-08-10T17:41:08.547Z,36.36
2022-08-10T17:44:00.763Z,36.34
2022-08-10T17:46:27.444Z,36.39
2022-08-10T17:48:55.810Z,36.58
2022-08-10T17:51:28.686Z,36.51
2022-08-10T17:54:00.684Z,36.68
2022-08-10T17:56:33.644Z,36.40
2022-08-10T17:59:09.725Z,36.69
2022-08-10T18:02:01.246Z,36.71
2022-08-10T18:04:41.212Z,36.74
2022-08-10T18:07:11.668Z,36.80
2022-08-10T18:09:44.474Z,36.89
2022-08-10T18:12:19.083Z,37.02
2022-08-10T18:14:49.806Z,37.31
2022-08-10T18:17:23.511Z,37.29
2022-08-10T18:19:58.220Z,37.28
2022-08-10T18:22:27.998Z,37.41
2022-08-10T18:24:58.965Z,37.41
2022-08-10T18:28:01.177Z,37.31
2022-08-10T18:30:19.304Z,37.35
2022-08-10T18:32:53.468Z,37.91
2022-08-10T18:35:34.591Z,37.75
2022-08-10T18:38:06.762Z,37.75
2022-08-10T18:40:38.546Z,37.73
2022-08-10T18:44:05.003Z,38.16
2022-08-10T18:46:02.829Z,38.14
2022-08-10T18:48:41.014Z,38.40
2022-08-10T18:51:11.412Z,38.34
2022-08-10T18:53:50.748Z,38.38
2022-08-10T18:56:21.195Z,38.38
2022-08-10T18:59:06.385Z,38.49
2022-08-10T19:01:55.898Z,38.78
2022-08-10T19:05:30.064Z,38.59
2022-08-10T19:08:33.061Z,38.76
2022-08-10T19:11:13.880Z,39.01
2022-08-10T19:13:59.624Z,39.23
2022-08-10T19:17:05.622Z,39.05
2022-08-10T19:19:45.444Z,39.21
2022-08-10T19:22:25.905Z,39.36
2022-08-10T19:25:05.891Z,39.37
2022-08-10T19:27:46.223Z,39.49
2022-08-10T19:30:15.865Z,39.57
2022-08-10T19:33:04.669Z,39.62
2022-08-10T19:36:12.265Z,39.88
2022-08-10T19:38:51.304Z,39.91
2022-08-10T19:41:32.673Z,40.03
2022-08-10T19:44:26.350Z,40.20
2022-08-10T19:47:06.181Z,40.18
2022-08-10T19:50:01.949Z,40.23
2022-08-10T19:52:45.240Z,40.39
2022-08-10T19:55:25.093Z,40.46
2022-08-10T19:58:02.906Z,40.63
2022-08-10T20:01:03.430Z,40.57
2022-08-10T20:03:50.318Z,40.72
2022-08-10T20:06:40.008Z,40.72
2022-08-10T20:09:16.523Z,40.70
2022-08-10T20:12:03.413Z,40.96
2022-08-10T20:14:42.598Z,41.01
2022-08-10T20:17:51.549Z,41.12
2022-08-10T20:20:36.117Z,41.27
2022-08-10T20:23:21.598Z,41.39
2022-08-10T20:26:01.308Z,41.54
2022-08-10T20:28:43.794Z,41.49
2022-08-10T20:31:17.628Z,41.53
2022-08-10T20:34:01.481Z,41.66
2022-08-10T20:36:39.406Z,41.81
2022-08-10T20:39:16.602Z,41.93
2022-08-10T20:41:53.936Z,42.03
2022-08-10T20:44:27.630Z,42.08
2022-08-10T20:47:18.675Z,42.27
2022-08-10T20:50:06.565Z,42.28
2022-08-10T20:52:35.873Z,42.39
2022-08-10T20:55:09.905Z,42.47
2022-08-10T20:57:57.592Z,42.45
2022-08-10T21:01:09.944Z,42.60
2022-08-10T21:03:44.635Z,42.82
2022-08-10T21:06:44.575Z,42.88
2022-08-10T21:09:32.837Z,43.05
2022-08-10T21:12:34.303Z,42.97
2022-08-10T21:15:20.835Z,43.30
2022-08-10T21:18:34.526Z,43.42
2022-08-10T21:21:41.545Z,43.27
2022-08-10T21:24:25.731Z,43.51
2022-08-10T21:27:08.283Z,43.46
2022-08-10T21:29:56.124Z,43.80
2022-08-10T21:32:30.306Z,43.81
2022-08-10T21:35:07.913Z,43.93
2022-08-10T21:37:58.763Z,43.93
2022-08-10T21:41:18.947Z,44.04
2022-08-10T21:44:16.810Z,44.24
2022-08-10T21:47:43.490Z,44.49
2022-08-10T21:50:45.739Z,44.48
2022-08-10T21:53:46.076Z,44.58
2022-08-10T21:56:50.693Z,44.67
2022-08-10T21:59:58.920Z,44.69
2022-08-10T22:02:51.080Z,44.81
2022-08-10T22:05:53.685Z,45.02
2022-08-10T22:08:45.065Z,45.22
2022-08-10T22:11:39.185Z,45.17
2022-08-10T22:18:00.792Z,45.38
2022-08-10T22:20:57.687Z,45.41
2022-08-10T22:23:44.074Z,45.63
2022-08-10T22:30:11.421Z,45.94
2022-08-10T22:31:26.142Z,45.78
2022-08-10T22:31:28.037Z,45.45
2022-08-10T22:33:06.871Z,45.83
2022-08-10T22:36:16.536Z,46.16
2022-08-10T22:40:10.039Z,46.10
2022-08-10T22:42:58.768Z,46.37
2022-08-10T22:45:55.297Z,46.33
2022-08-10T22:48:41.553Z,46.44
2022-08-10T22:51:16.610Z,46.61
2022-08-10T22:54:30.878Z,46.59
2022-08-10T22:57:20.355Z,46.79
2022-08-10T22:59:49.685Z,46.71
2022-08-10T23:02:33.053Z,46.87
2022-08-10T23:05:05.813Z,46.90
2022-08-10T23:07:41.390Z,47.09
2022-08-10T23:10:11.914Z,47.21
2022-08-10T23:12:56.981Z,47.08
2022-08-10T23:15:55.511Z,47.26
2022-08-10T23:18:55.217Z,47.39
2022-08-10T23:21:28.661Z,47.49
2022-08-10T23:24:25.582Z,47.42
2022-08-10T23:26:55.155Z,47.66
2022-08-10T23:29:29.076Z,47.75
2022-08-10T23:32:07.531Z,47.75
2022-08-10T23:34:37.060Z,47.82
2022-08-10T23:37:09.128Z,47.90
2022-08-10T23:39:40.772Z,48.00
2022-08-10T23:42:13.002Z,48.08
2022-08-10T23:44:44.282Z,48.10
2022-08-10T23:47:15.973Z,48.23
2022-08-10T23:49:45.353Z,48.27
2022-08-10T23:52:18.597Z,48.35
2022-08-10T23:54:49.906Z,48.36
2022-08-10T23:57:21.723Z,48.56
2022-08-10T23:59:52.378Z,48.67
